Time;durP1;ratioP1;P1;durP2;ratioP2;P2;SDS_P1;SDS_P2;PMS_P1;PMS_P2;Temp;Humidity;BMP_temperature;BMP_pressure;BME280_temperature;BME280_humidity;BME280_pressure;Samples;Min_cycle;Max_cycle;Signal;HPM_P1;HPM_P2
2021/04/19 00:02:54;;;;;;;36.78;16.40;;;;;;;7.08;100.00;102190.78;9768238;30;20848;-85
2021/04/19 00:07:54;;;;;;;29.92;15.02;;;;;;;6.71;100.00;102128.13;9733408;30;20400;-84
2021/04/19 00:12:57;;;;;;;41.42;16.13;;;;;;;7.10;100.00;102188.59;9759752;30;20055;-84
2021/04/19 00:17:58;;;;;;;36.55;15.73;;;;;;;7.12;100.00;102180.22;9754716;30;20069;-84
2021/04/19 00:22:58;;;;;;;42.17;16.33;;;;;;;7.06;100.00;102159.94;9759423;30;20478;-84
2021/04/19 00:27:59;;;;;;;38.97;17.10;;;;;;;7.10;100.00;102183.22;9779559;30;20053;-84
2021/04/19 00:33:02;;;;;;;38.58;15.30;;;;;;;7.05;100.00;102164.47;9761705;30;20060;-84
2021/04/19 00:38:02;;;;;;;36.45;16.20;;;;;;;6.91;100.00;102142.22;9755268;30;20717;-84
2021/04/19 00:43:03;;;;;;;42.03;16.42;;;;;;;6.92;100.00;102162.63;9745139;30;20052;-83
2021/04/19 00:48:04;;;;;;;41.88;18.98;;;;;;;6.53;100.00;102104.84;9771931;30;20523;-83
2021/04/19 00:53:08;;;;;;;52.47;19.80;;;;;;;6.37;100.00;102095.50;9788454;30;20064;-84
2021/04/19 00:58:08;;;;;;;48.05;20.48;;;;;;;6.19;100.00;102047.00;9775722;30;20068;-83
2021/04/19 01:03:09;;;;;;;41.60;20.35;;;;;;;6.75;100.00;102123.75;9758816;30;20139;-83
2021/04/19 01:08:10;;;;;;;43.40;19.10;;;;;;;6.73;100.00;102127.84;9739397;30;20514;-82
2021/04/19 01:13:10;;;;;;;55.53;21.42;;;;;;;6.63;100.00;102115.41;9726679;30;20071;-82
2021/04/19 01:18:11;;;;;;;46.20;19.55;;;;;;;6.70;100.00;102129.22;9749315;30;20088;-82
2021/04/19 01:23:12;;;;;;;55.75;19.65;;;;;;;6.56;100.00;102115.00;9757031;30;20144;-82
2021/04/19 01:28:14;;;;;;;45.63;20.55;;;;;;;6.67;100.00;102137.88;9747253;30;20475;-82
2021/04/19 01:33:15;;;;;;;46.55;20.08;;;;;;;6.64;100.00;102126.94;9742956;30;20493;-83
2021/04/19 01:38:19;;;;;;;47.33;20.10;;;;;;;6.45;100.00;102094.81;9747932;30;20056;-82
2021/04/19 01:43:20;;;;;;;54.00;22.85;;;;;;;6.58;100.00;102110.13;9791029;30;20044;-81
2021/04/19 01:48:22;;;;;;;49.08;20.23;;;;;;;6.57;100.00;102111.22;9772171;30;20040;-83
2021/04/19 01:53:23;;;;;;;50.47;21.60;;;;;;;5.98;100.00;102024.34;9767772;30;20060;-82
2021/04/19 01:58:26;;;;;;;55.97;23.60;;;;;;;6.60;100.00;102126.72;9749559;30;20048;-82
2021/04/19 02:03:48;;;;;;;56.35;21.92;;;;;;;6.53;100.00;102120.97;9766755;30;20053;-82
2021/04/19 02:09:14;;;;;;;54.17;22.83;;;;;;;5.70;100.00;102002.84;9765178;30;20168;-83
2021/04/19 02:14:17;;;;;;;53.92;22.63;;;;;;;6.46;100.00;102125.94;9779166;30;20054;-82
2021/04/19 02:19:48;;;;;;;57.95;23.88;;;;;;;6.42;100.00;102119.56;9773797;30;20519;-82
2021/04/19 02:24:50;;;;;;;49.40;25.30;;;;;;;6.40;100.00;102116.41;9772624;30;20068;-82
2021/04/19 02:29:52;;;;;;;56.83;26.83;;;;;;;6.22;100.00;102100.09;9747437;30;20064;-82
2021/04/19 02:34:54;;;;;;;55.17;26.25;;;;;;;6.04;100.00;102071.44;9778478;30;20053;-82
2021/04/19 02:39:55;;;;;;;;;;;;;;;6.28;100.00;102116.88;9770706;30;20139;-82
2021/04/19 02:44:56;;;;;;;59.75;28.88;;;;;;;6.26;100.00;102106.47;9749959;30;20381;-82
2021/04/19 02:49:57;;;;;;;62.40;30.30;;;;;;;6.31;100.00;102119.78;9746277;30;20103;-82
2021/04/19 02:54:58;;;;;;;58.03;31.60;;;;;;;6.27;100.00;102108.03;9760102;30;20112;-82
2021/04/19 03:00:00;;;;;;;67.18;34.17;;;;;;;6.33;100.00;102111.44;9772329;30;20170;-82
2021/04/19 03:05:01;;;;;;;68.63;36.13;;;;;;;6.19;100.00;102081.91;9766340;30;20115;-82
2021/04/19 03:10:08;;;;;;;71.53;37.63;;;;;;;6.11;100.00;102055.75;9761895;30;20526;-83
2021/04/19 03:15:12;;;;;;;68.28;37.13;;;;;;;6.49;100.00;102103.84;9761063;30;20406;-83
2021/04/19 03:20:24;;;;;;;61.28;35.50;;;;;;;6.48;100.00;102118.41;9776642;30;20604;-81
2021/04/19 03:25:27;;;;;;;80.33;39.17;;;;;;;6.40;100.00;102094.91;9790632;30;20062;-83
2021/04/19 03:30:28;;;;;;;72.65;39.70;;;;;;;6.17;100.00;102059.94;9785554;30;20056;-83
2021/04/19 03:35:32;;;;;;;80.05;40.67;;;;;;;6.46;100.00;102094.50;9777616;30;20053;-83
2021/04/19 03:40:34;;;;;;;77.53;44.95;;;;;;;6.46;100.00;102099.09;9748015;30;20078;-82
2021/04/19 03:45:38;;;;;;;83.38;44.25;;;;;;;6.11;100.00;102055.75;9778766;30;20072;-83
2021/04/19 03:50:48;;;;;;;76.50;42.17;;;;;;;5.96;100.00;102010.41;9782493;30;20060;-83
2021/04/19 03:55:49;;;;;;;80.22;44.97;;;;;;;6.43;100.00;102083.59;9755038;30;20530;-82
2021/04/19 04:00:50;;;;;;;80.10;44.85;;;;;;;6.45;100.00;102092.13;9749416;30;20064;-83
2021/04/19 04:05:51;;;;;;;77.03;45.03;;;;;;;6.35;100.00;102077.81;9745741;30;20053;-82
2021/04/19 04:10:52;;;;;;;86.10;45.90;;;;;;;6.30;100.00;102075.25;9762308;30;20109;-83
2021/04/19 04:15:55;;;;;;;85.30;47.90;;;;;;;6.31;100.00;102081.41;9782145;30;20045;-83
2021/04/19 04:20:56;;;;;;;77.90;46.00;;;;;;;6.25;100.00;102067.25;9790613;30;20052;-82
2021/04/19 04:25:57;;;;;;;70.47;43.28;;;;;;;6.31;100.00;102066.09;9773434;30;20063;-82
2021/04/19 04:30:58;;;;;;;82.30;45.15;;;;;;;6.14;100.00;102039.06;9766762;30;20072;-81
2021/04/19 04:36:01;;;;;;;65.85;41.88;;;;;;;6.23;100.00;102045.31;9762917;30;20060;-77
2021/04/19 04:41:01;;;;;;;70.22;39.95;;;;;;;6.24;100.00;102033.47;9777231;30;20515;-75
2021/04/19 04:46:24;;;;;;;65.25;40.85;;;;;;;6.38;100.00;102027.28;9759219;30;20044;-77
2021/04/19 04:51:27;;;;;;;63.20;38.25;;;;;;;6.57;100.00;102068.25;9734166;30;20131;-79
2021/04/19 04:56:31;;;;;;;66.57;39.53;;;;;;;6.35;100.00;102029.47;9799140;30;20521;-86
2021/04/19 05:01:34;;;;;;;65.32;38.47;;;;;;;6.43;100.00;102021.81;9748147;30;20057;-77
2021/04/19 05:06:35;;;;;;;67.88;37.20;;;;;;;6.35;100.00;102034.84;9746730;30;20486;-76
2021/04/19 05:11:42;;;;;;;64.28;35.60;;;;;;;6.55;100.00;102062.38;9741411;30;20056;-78
2021/04/19 05:16:46;;;;;;;58.97;35.75;;;;;;;6.53;100.00;102051.13;9736839;30;20632;-79
2021/04/19 05:21:48;;;;;;;58.22;32.72;;;;;;;6.63;100.00;102072.41;9756478;30;20114;-77
2021/04/19 05:26:51;;;;;;;58.30;33.22;;;;;;;5.99;100.00;101961.50;9756747;30;20736;-77
2021/04/19 05:31:52;;;;;;;62.50;35.63;;;;;;;6.09;100.00;101966.66;9773107;30;20068;-76
2021/04/19 05:36:53;;;;;;;61.83;33.20;;;;;;;6.18;100.00;101975.59;9755980;30;20079;-76
2021/04/19 05:42:02;;;;;;;51.65;31.55;;;;;;;6.87;100.00;102082.13;9765943;30;20131;-75
2021/04/19 05:47:02;;;;;;;59.25;31.77;;;;;;;6.92;100.00;102079.31;9769477;30;20044;-76
2021/04/19 05:52:04;;;;;;;49.33;28.05;;;;;;;7.09;100.00;102079.44;9777382;30;20049;-76
2021/04/19 05:57:39;;;;;;;54.10;29.85;;;;;;;7.22;100.00;102076.97;9746278;30;20064;-76
2021/04/19 06:02:58;;;;;;;46.47;28.83;;;;;;;7.31;100.00;102075.16;9741880;30;20147;-76
2021/04/19 06:08:13;;;;;;;44.22;28.08;;;;;;;7.32;100.00;102066.00;9766552;30;20056;-76
2021/04/19 06:13:19;;;;;;;50.85;27.58;;;;;;;7.39;100.00;102055.59;9775313;30;20085;-77
2021/04/19 06:18:27;;;;;;;42.83;25.15;;;;;;;6.71;100.00;101934.63;9771745;30;20052;-75
2021/04/19 06:23:28;;;;;;;45.00;23.98;;;;;;;7.58;100.00;102037.34;9747829;30;20053;-77
2021/04/19 06:28:31;;;;;;;43.25;23.52;;;;;;;7.74;100.00;102036.94;9754903;30;21573;-76
2021/04/19 06:33:33;;;;;;;44.88;21.95;;;;;;;7.62;100.00;101992.56;9759881;30;20072;-75
2021/04/19 06:38:33;;;;;;;32.78;19.75;;;;;;;8.05;100.00;102000.00;9744395;30;20479;-75
2021/04/19 06:43:36;;;;;;;34.33;20.58;;;;;;;8.35;100.00;102053.28;9758502;30;20063;-78
2021/04/19 06:48:40;;;;;;;36.70;22.02;;;;;;;8.12;100.00;101985.28;9770057;30;20151;-78
2021/04/19 06:53:43;;;;;;;40.20;21.50;;;;;;;8.56;100.00;102048.13;9752219;30;20052;-77
2021/04/19 06:58:51;;;;;;;43.88;22.40;;;;;;;8.77;100.00;102059.91;9772314;30;20511;-78
2021/04/19 07:03:59;;;;;;;40.70;20.20;;;;;;;8.74;100.00;102028.16;9743986;30;20074;-77
2021/04/19 07:09:28;;;;;;;32.53;18.02;;;;;;;9.12;100.00;102065.25;9748682;30;20563;-77
2021/04/19 07:14:36;;;;;;;30.67;17.05;;;;;;;9.50;100.00;102064.56;9741814;30;20075;-77
2021/04/19 07:19:40;;;;;;;36.80;17.23;;;;;;;9.44;100.00;102028.84;9753112;30;20068;-80
2021/04/19 07:24:40;;;;;;;32.03;17.35;;;;;;;8.79;100.00;101949.81;9750875;30;20061;-79
2021/04/19 07:29:43;;;;;;;32.20;16.42;;;;;;;9.59;96.00;101992.44;9765970;30;20049;-79
2021/04/19 07:34:58;;;;;;;36.15;18.55;;;;;;;9.99;95.18;102048.81;9765085;30;20052;-77
2021/04/19 07:40:03;;;;;;;26.40;16.98;;;;;;;10.21;94.63;101982.13;9744224;30;20262;-78
2021/04/19 07:45:31;;;;;;;;;;;;;;;;;;;;;
2021/04/19 07:50:52;;;;;;;23.13;13.30;;;;;;;15.27;64.27;102021.41;9744443;30;20153;-78
2021/04/19 07:55:55;;;;;;;21.63;13.00;;;;;;;16.75;57.91;102009.53;9733442;30;20395;-76
2021/04/19 08:01:03;;;;;;;;;;;;;;;17.50;54.49;102031.38;9729979;30;20049;-76
2021/04/19 08:06:16;;;;;;;18.83;11.15;;;;;;;17.69;51.15;101968.25;9746035;30;20245;-75
2021/04/19 08:11:22;;;;;;;21.73;11.57;;;;;;;18.25;50.01;101971.72;9749172;30;20060;-76
2021/04/19 08:16:25;;;;;;;17.77;11.98;;;;;;;18.87;49.29;102017.31;9739137;30;20053;-77
2021/04/19 08:21:35;;;;;;;21.75;11.70;;;;;;;19.25;46.94;101960.22;9757752;30;20056;-76
2021/04/19 08:26:56;;;;;;;15.50;9.63;;;;;;;19.77;44.64;102001.72;9776612;30;20045;-76
2021/04/19 08:31:59;;;;;;;18.52;10.35;;;;;;;19.63;43.80;101974.28;9773346;30;20080;-78
2021/04/19 08:37:13;;;;;;;18.38;10.95;;;;;;;20.47;43.23;102020.34;9769446;30;20087;-78
2021/04/19 08:42:14;;;;;;;17.52;9.35;;;;;;;20.64;42.20;102008.53;9763160;30;20044;-77
2021/04/19 08:47:19;;;;;;;20.48;10.25;;;;;;;20.23;41.44;101962.41;9754249;30;20148;-77
2021/04/19 08:52:27;;;;;;;18.05;9.88;;;;;;;20.03;42.40;101988.72;9766109;30;20102;-77
2021/04/19 08:57:35;;;;;;;20.15;10.80;;;;;;;20.08;43.00;102015.78;9767960;30;20057;-77
2021/04/19 09:02:41;;;;;;;18.08;10.45;;;;;;;21.36;40.03;102015.53;9763872;30;20103;-77
2021/04/19 09:08:04;;;;;;;16.05;10.35;;;;;;;22.22;38.62;102001.75;9734799;30;20498;-77
2021/04/19 09:13:31;;;;;;;16.55;10.05;;;;;;;19.87;42.65;102010.31;9768285;30;20135;-77
2021/04/19 09:18:33;;;;;;;22.13;11.27;;;;;;;17.43;48.46;101943.84;9733636;30;20068;-77
2021/04/19 09:23:43;;;;;;;24.80;11.43;;;;;;;17.94;49.98;102012.22;9743338;30;20056;-77
2021/04/19 09:28:56;;;;;;;18.80;11.50;;;;;;;20.32;43.59;102013.34;9762062;30;20510;-76
2021/04/19 09:34:12;;;;;;;28.35;12.90;;;;;;;19.68;44.29;102015.06;9751585;30;20048;-81
2021/04/19 09:39:51;;;;;;;23.95;12.65;;;;;;;18.57;47.49;102009.38;9763193;30;20061;-80
2021/04/19 09:44:55;;;;;;;20.10;12.30;;;;;;;16.93;52.48;101976.19;9739660;30;20150;-82
2021/04/19 09:49:56;;;;;;;25.23;12.55;;;;;;;15.83;59.79;102012.63;9759120;30;20036;-81
2021/04/19 09:55:01;;;;;;;23.85;14.10;;;;;;;14.80;68.21;102015.88;9767585;30;20269;-79
2021/04/19 10:00:01;;;;;;;28.73;15.07;;;;;;;13.60;77.56;101965.88;9770743;30;20122;-80
2021/04/19 10:05:03;;;;;;;27.67;16.52;;;;;;;13.57;80.93;102010.03;9740751;30;20734;-80
2021/04/19 10:10:05;;;;;;;27.47;15.87;;;;;;;13.34;81.01;101964.47;9734265;30;20800;-80
2021/04/19 10:15:06;;;;;;;28.20;15.38;;;;;;;13.84;80.44;101998.25;9770893;30;20140;-79
2021/04/19 10:20:42;;;;;;;28.00;16.35;;;;;;;13.95;79.13;101993.09;9743683;30;20060;-82
2021/04/19 10:25:52;;;;;;;26.42;14.52;;;;;;;14.44;77.21;101992.59;9726329;30;20057;-81
2021/04/19 10:31:24;;;;;;;27.85;14.52;;;;;;;14.14;75.95;101935.22;9783780;30;20049;-81
2021/04/19 10:36:28;;;;;;;22.73;13.00;;;;;;;14.97;74.42;101975.72;9755942;30;20049;-81
2021/04/19 10:41:33;;;;;;;29.45;13.77;;;;;;;15.49;70.52;101995.31;9765392;30;20076;-82
2021/04/19 10:46:38;;;;;;;22.63;12.95;;;;;;;16.36;63.39;101979.81;9764051;30;20123;-81
2021/04/19 10:51:39;;;;;;;27.10;15.38;;;;;;;16.05;62.70;101935.41;9755846;30;20551;-81
2021/04/19 10:56:39;;;;;;;23.60;14.73;;;;;;;15.96;65.72;102003.06;9770044;30;20063;-82
2021/04/19 11:01:42;;;;;;;25.33;14.10;;;;;;;15.70;62.74;101923.97;9776724;30;20127;-81
2021/04/19 11:06:43;;;;;;;22.40;14.85;;;;;;;15.42;68.08;101979.63;9764075;30;20048;-80
2021/04/19 11:11:45;;;;;;;27.27;15.45;;;;;;;15.43;66.87;101983.94;9755978;30;20069;-83
2021/04/19 11:16:50;;;;;;;26.65;16.83;;;;;;;15.18;66.56;101929.81;9777516;30;20495;-83
2021/04/19 11:21:51;;;;;;;25.25;16.60;;;;;;;15.08;66.20;101938.59;9780984;30;20060;-82
2021/04/19 11:26:51;;;;;;;28.02;18.17;;;;;;;15.23;67.37;101967.63;9763249;30;20048;-82
2021/04/19 11:31:56;;;;;;;32.15;17.95;;;;;;;15.44;65.92;101971.88;9764476;30;20041;-82
2021/04/19 11:36:58;;;;;;;31.55;18.20;;;;;;;15.39;67.77;101980.34;9770573;30;20395;-82
2021/04/19 11:41:59;;;;;;;25.30;16.33;;;;;;;15.75;66.51;101965.34;9772921;30;20126;-83
2021/04/19 11:46:59;;;;;;;26.52;17.88;;;;;;;15.75;65.08;101959.13;9766215;30;20122;-82
2021/04/19 11:52:00;;;;;;;28.83;18.75;;;;;;;15.92;66.16;101961.34;9776138;30;20057;-82
2021/04/19 11:57:00;;;;;;;26.60;18.45;;;;;;;16.36;65.71;101963.44;9767411;30;20068;-79
2021/04/19 12:02:02;;;;;;;28.52;18.27;;;;;;;16.35;62.16;101907.31;9774977;30;20427;-83
2021/04/19 12:07:06;;;;;;;26.58;19.08;;;;;;;16.97;61.84;101961.41;9781435;30;20049;-84
2021/04/19 12:12:06;;;;;;;27.42;19.85;;;;;;;16.92;61.17;101941.84;9771935;30;20052;-82
2021/04/19 12:17:07;;;;;;;25.13;19.50;;;;;;;16.40;62.16;101917.91;9795268;30;20057;-84
2021/04/19 12:22:08;;;;;;;28.73;20.10;;;;;;;16.80;62.97;101946.41;9766991;30;20083;-84
2021/04/19 12:27:08;;;;;;;25.48;18.05;;;;;;;17.23;60.79;101952.28;9774809;30;20140;-82
2021/04/19 12:32:12;;;;;;;31.33;18.55;;;;;;;17.17;60.69;101937.41;9792630;30;20069;-85
2021/04/19 12:37:14;;;;;;;20.23;16.08;;;;;;;16.72;59.19;101890.16;9775788;30;20049;-80
2021/04/19 12:42:15;;;;;;;20.00;14.45;;;;;;;16.72;59.53;101933.84;9767234;30;20403;-82
2021/04/19 12:47:15;;;;;;;19.52;14.05;;;;;;;16.61;60.55;101949.31;9757748;30;20633;-82
2021/04/19 12:52:16;;;;;;;20.70;15.27;;;;;;;16.39;60.86;101938.16;9769127;30;20055;-79
2021/04/19 12:57:16;;;;;;;20.25;15.63;;;;;;;16.33;60.95;101945.09;9766723;30;20076;-80
2021/04/19 13:02:17;;;;;;;23.70;16.63;;;;;;;16.39;62.08;101938.16;9759833;30;20139;-80
2021/04/19 13:07:17;;;;;;;24.65;15.88;;;;;;;16.66;60.20;101940.78;9767246;30;20040;-81
2021/04/19 13:12:18;;;;;;;21.88;15.52;;;;;;;16.31;59.71;101881.94;9766689;30;20053;-78
2021/04/19 13:17:18;;;;;;;18.38;14.25;;;;;;;16.55;59.57;101939.88;9767196;30;20467;-81
2021/04/19 13:22:18;;;;;;;17.83;13.02;;;;;;;16.30;59.62;101896.75;9763253;30;20451;-80
2021/04/19 13:27:19;;;;;;;16.30;11.98;;;;;;;16.30;57.79;101891.28;9766102;30;20485;-80
2021/04/19 13:32:19;;;;;;;16.52;11.65;;;;;;;16.62;58.62;101929.03;9766345;30;20044;-79
2021/04/19 13:37:20;;;;;;;15.93;11.63;;;;;;;16.79;57.76;101917.56;9744733;30;20060;-79
2021/04/19 13:42:20;;;;;;;20.17;12.48;;;;;;;16.93;57.48;101910.66;9774986;30;20113;-75
2021/04/19 13:47:21;;;;;;;13.85;11.05;;;;;;;16.89;56.49;101884.09;9774275;30;20068;-79
2021/04/19 13:52:21;;;;;;;17.48;11.43;;;;;;;16.82;56.33;101862.19;9745601;30;20088;-75
2021/04/19 13:57:22;;;;;;;20.17;12.75;;;;;;;16.90;56.12;101891.13;9753994;30;20231;-75
2021/04/19 14:02:23;;;;;;;14.57;11.23;;;;;;;17.20;55.11;101903.84;9762486;30;20045;-76
2021/04/19 14:07:24;;;;;;;14.88;10.52;;;;;;;17.04;54.53;101862.34;9755154;30;20056;-78
2021/04/19 14:12:27;;;;;;;12.43;10.00;;;;;;;17.00;53.82;101853.34;9785857;30;20109;-79
2021/04/19 14:17:27;;;;;;;15.50;10.82;;;;;;;16.98;54.13;101880.25;9763386;30;20083;-75
2021/04/19 14:22:29;;;;;;;16.70;11.25;;;;;;;16.61;52.14;101810.09;9774957;30;20056;-77
2021/04/19 14:27:30;;;;;;;13.40;10.05;;;;;;;16.41;54.74;101873.06;9781329;30;20056;-77
2021/04/19 14:32:30;;;;;;;12.88;9.77;;;;;;;16.08;55.20;101867.63;9773469;30;20517;-77
2021/04/19 14:37:31;;;;;;;14.30;8.88;;;;;;;16.00;53.93;101858.59;9767614;30;20053;-77
2021/04/19 14:42:32;;;;;;;11.48;8.70;;;;;;;16.79;53.23;101857.50;9745754;30;20057;-75
2021/04/19 14:47:33;;;;;;;13.82;7.30;;;;;;;17.67;50.31;101853.00;9774377;30;20060;-74
2021/04/19 14:52:34;;;;;;;6.43;5.10;;;;;;;18.29;46.70;101840.34;9776144;30;20064;-74
2021/04/19 14:57:35;;;;;;;8.17;5.60;;;;;;;18.36;43.98;101791.09;9746756;30;20891;-76
2021/04/19 15:02:37;;;;;;;8.25;5.68;;;;;;;18.97;44.53;101857.63;9756308;30;20789;-77
2021/04/19 15:07:37;;;;;;;8.88;6.57;;;;;;;18.46;45.70;101834.13;9770954;30;20061;-76
2021/04/19 15:12:38;;;;;;;9.50;7.47;;;;;;;17.57;48.83;101829.13;9775290;30;20237;-76
2021/04/19 15:17:38;;;;;;;9.98;7.38;;;;;;;17.42;49.56;101832.94;9746983;30;20472;-76
2021/04/19 15:22:39;;;;;;;10.80;7.93;;;;;;;16.30;52.16;101748.59;9766060;30;20631;-76
2021/04/19 15:27:39;;;;;;;16.05;11.65;;;;;;;16.27;55.80;101837.44;9752503;30;20064;-78
2021/04/19 15:32:40;;;;;;;17.65;11.50;;;;;;;16.38;56.07;101843.03;9741229;30;20059;-76
2021/04/19 15:37:47;;;;;;;16.55;12.45;;;;;;;16.68;55.22;101812.91;9769264;30;20133;-75
2021/04/19 15:42:48;;;;;;;14.02;9.40;;;;;;;17.07;53.04;101823.34;9752010;30;20095;-76
2021/04/19 15:47:49;;;;;;;13.32;9.07;;;;;;;17.78;49.80;101838.56;9746053;30;20147;-75
2021/04/19 15:52:49;;;;;;;11.88;7.55;;;;;;;17.30;48.64;101799.28;9766321;30;20419;-75
2021/04/19 15:57:50;;;;;;;12.25;8.43;;;;;;;17.45;49.03;101837.63;9750822;30;20071;-76
2021/04/19 16:02:50;;;;;;;11.60;8.65;;;;;;;16.86;51.51;101802.94;9776076;30;20048;-75
2021/04/19 16:07:51;;;;;;;10.43;8.50;;;;;;;16.59;52.14;101804.22;9742451;30;20355;-75
2021/04/19 16:12:51;;;;;;;11.68;8.48;;;;;;;16.22;53.76;101791.41;9735405;30;20460;-76
2021/04/19 16:17:53;;;;;;;13.32;9.32;;;;;;;16.07;54.82;101806.84;9770331;30;20458;-79
2021/04/19 16:22:54;;;;;;;13.20;10.40;;;;;;;15.86;54.78;101823.75;9769814;30;20083;-77
2021/04/19 16:27:55;;;;;;;13.32;9.63;;;;;;;15.97;55.90;101834.78;9772851;30;20052;-79
2021/04/19 16:32:56;;;;;;;15.35;9.45;;;;;;;16.38;54.21;101821.97;9739783;30;20060;-77
2021/04/19 16:37:57;;;;;;;14.32;8.45;;;;;;;16.59;52.91;101835.03;9769935;30;20141;-77
2021/04/19 16:42:58;;;;;;;13.80;9.27;;;;;;;15.88;53.82;101760.69;9760207;30;20049;-80
2021/04/19 16:47:59;;;;;;;10.60;7.50;;;;;;;16.36;52.57;101834.41;9755255;30;20056;-84
2021/04/19 16:52:59;;;;;;;11.20;8.43;;;;;;;16.12;53.99;101819.38;9766469;30;20057;-80
2021/04/19 16:58:00;;;;;;;12.07;8.82;;;;;;;15.32;54.13;101748.69;9779904;30;20075;-81
2021/04/19 17:03:00;;;;;;;19.08;9.30;;;;;;;15.61;54.65;101796.91;9755714;30;20376;-81
2021/04/19 17:08:02;;;;;;;12.38;8.20;;;;;;;15.67;55.87;101829.31;9760610;30;20152;-80
2021/04/19 17:13:03;;;;;;;12.52;9.73;;;;;;;15.47;56.23;101802.19;9748017;30;20206;-78
2021/04/19 17:18:04;;;;;;;14.80;10.02;;;;;;;15.48;57.42;101820.13;9784649;30;20057;-79
2021/04/19 17:23:05;;;;;;;15.27;11.48;;;;;;;15.07;57.93;101784.50;9771650;30;20485;-80
2021/04/19 17:28:05;;;;;;;15.40;10.85;;;;;;;14.92;59.21;101793.63;9793329;30;20116;-78
2021/04/19 17:33:07;;;;;;;13.27;10.18;;;;;;;14.95;59.66;101831.00;9778227;30;20061;-80
2021/04/19 17:38:10;;;;;;;13.57;11.05;;;;;;;14.75;59.83;101816.69;9757490;30;20569;-78
2021/04/19 17:43:10;;;;;;;17.33;11.18;;;;;;;14.77;60.57;101836.97;9768082;30;20105;-79
2021/04/19 17:48:11;;;;;;;13.90;11.18;;;;;;;14.38;61.15;101798.16;9783912;30;20537;-80
2021/04/19 17:53:12;;;;;;;13.02;10.95;;;;;;;14.47;61.16;101838.72;9773336;30;20090;-80
2021/04/19 17:58:12;;;;;;;14.73;11.82;;;;;;;14.26;61.78;101834.47;9770900;30;20411;-79
2021/04/19 18:03:15;;;;;;;15.18;12.82;;;;;;;13.66;64.79;101796.00;9783361;30;20772;-79
2021/04/19 18:08:15;;;;;;;19.52;15.60;;;;;;;13.68;66.99;101854.25;9776209;30;20392;-79
2021/04/19 18:13:15;;;;;;;24.23;16.83;;;;;;;13.34;67.97;101823.25;9773951;30;20053;-80
2021/04/19 18:18:17;;;;;;;22.52;18.33;;;;;;;13.03;69.05;101800.44;9777914;30;20052;-81
2021/04/19 18:23:18;;;;;;;26.80;18.83;;;;;;;12.62;69.46;101753.69;9785823;30;20068;-78
2021/04/19 18:28:18;;;;;;;22.65;17.50;;;;;;;13.03;70.33;101838.44;9775145;30;20516;-80
2021/04/19 18:33:19;;;;;;;23.15;17.75;;;;;;;12.87;70.27;101837.66;9775497;30;20116;-76
2021/04/19 18:38:20;;;;;;;27.73;18.50;;;;;;;12.81;71.08;101844.47;9775444;30;20065;-78
2021/04/19 18:43:20;;;;;;;24.80;18.02;;;;;;;12.73;71.75;101848.16;9758742;30;20052;-77
2021/04/19 18:48:21;;;;;;;25.05;18.67;;;;;;;12.60;72.11;101855.56;9778298;30;20684;-77
2021/04/19 18:53:22;;;;;;;23.77;18.75;;;;;;;12.19;72.22;101809.56;9747711;30;20076;-76
2021/04/19 18:58:22;;;;;;;22.40;17.70;;;;;;;12.40;73.33;101862.78;9770023;30;20072;-76
2021/04/19 19:03:23;;;;;;;27.38;18.10;;;;;;;11.95;73.64;101809.69;9769008;30;20136;-74
2021/04/19 19:08:23;;;;;;;24.50;18.70;;;;;;;12.13;73.89;101854.28;9766358;30;20057;-78
2021/04/19 19:13:24;;;;;;;26.42;19.20;;;;;;;11.96;74.47;101843.75;9760496;30;20053;-77
2021/04/19 19:18:24;;;;;;;29.05;20.23;;;;;;;11.99;75.31;101853.91;9772751;30;20415;-77
2021/04/19 19:23:26;;;;;;;31.75;20.70;;;;;;;11.82;75.80;101844.88;9769051;30;20144;-75
2021/04/19 19:28:28;;;;;;;28.20;19.27;;;;;;;11.54;76.49;101839.41;9772919;30;20423;-75
2021/04/19 19:33:29;;;;;;;26.77;20.00;;;;;;;10.71;77.94;101733.25;9778614;30;20506;-76
2021/04/19 19:38:29;;;;;;;29.60;20.20;;;;;;;11.21;78.34;101831.44;9756126;30;20055;-73
2021/04/19 19:43:30;;;;;;;27.02;20.20;;;;;;;11.20;80.21;101856.94;9770316;30;20049;-76
2021/04/19 19:48:31;;;;;;;27.95;20.00;;;;;;;10.89;80.36;101831.22;9767004;30;20041;-75
2021/04/19 19:53:32;;;;;;;28.95;21.15;;;;;;;10.97;80.90;101865.47;9748901;30;20396;-74
2021/04/19 19:58:32;;;;;;;35.25;23.35;;;;;;;10.36;80.44;101770.72;9755733;30;20048;-76
2021/04/19 20:03:33;;;;;;;33.55;21.83;;;;;;;10.71;81.19;101837.94;9773173;30;20045;-73
2021/04/19 20:08:34;;;;;;;27.80;20.52;;;;;;;10.84;81.36;101861.19;9768961;30;20058;-76
2021/04/19 20:13:34;;;;;;;26.90;19.92;;;;;;;10.75;82.08;101868.63;9753998;30;20559;-75
2021/04/19 20:18:35;;;;;;;31.85;20.38;;;;;;;10.75;83.25;101865.91;9756077;30;20174;-77
2021/04/19 20:23:36;;;;;;;30.10;20.58;;;;;;;9.84;83.83;101753.09;9772081;30;20061;-75
2021/04/19 20:28:36;;;;;;;31.33;21.25;;;;;;;10.60;84.25;101877.34;9766735;30;20565;-75
2021/04/19 20:33:37;;;;;;;29.65;21.02;;;;;;;10.57;83.83;101876.88;9762153;30;20049;-76
2021/04/19 20:38:38;;;;;;;31.60;21.38;;;;;;;10.12;83.91;101799.22;9755848;30;20122;-75
2021/04/19 20:43:38;;;;;;;29.65;21.33;;;;;;;10.55;84.61;101871.03;9768907;30;20045;-77
2021/04/19 20:48:40;;;;;;;30.55;21.52;;;;;;;10.43;84.45;101862.88;9775180;30;20048;-78
2021/04/19 20:53:40;;;;;;;38.50;22.75;;;;;;;10.31;84.80;101860.13;9756405;30;20068;-76
2021/04/19 20:58:41;;;;;;;32.53;21.80;;;;;;;10.36;86.23;101878.84;9758634;30;20143;-77
2021/04/19 21:03:42;;;;;;;31.75;22.35;;;;;;;9.80;87.13;101802.69;9751335;30;20064;-77
2021/04/19 21:08:42;;;;;;;30.98;22.05;;;;;;;10.15;88.17;101868.81;9768639;30;20466;-79
2021/04/19 21:13:44;;;;;;;33.25;22.88;;;;;;;10.00;88.26;101858.63;9758636;30;20519;-77
2021/04/19 21:18:45;;;;;;;32.28;23.10;;;;;;;9.81;88.62;101836.69;9755494;30;20060;-78
2021/04/19 21:23:45;;;;;;;33.85;23.88;;;;;;;9.96;89.76;101882.00;9753448;30;20057;-79
2021/04/19 21:28:46;;;;;;;39.03;25.25;;;;;;;9.88;90.84;101880.16;9773323;30;20048;-78
2021/04/19 21:33:46;;;;;;;36.28;26.75;;;;;;;9.83;90.98;101872.22;9774990;30;20544;-78
2021/04/19 21:38:47;;;;;;;38.55;26.92;;;;;;;9.79;92.59;101871.34;9759976;30;20481;-78
2021/04/19 21:43:47;;;;;;;38.90;27.42;;;;;;;9.38;92.70;101818.84;9779522;30;20052;-79
2021/04/19 21:48:48;;;;;;;37.20;26.20;;;;;;;9.26;93.01;101836.53;9771753;30;20087;-79
2021/04/19 21:53:48;;;;;;;37.20;26.80;;;;;;;9.19;93.17;101822.75;9763814;30;20098;-80
2021/04/19 21:58:49;;;;;;;33.30;24.77;;;;;;;9.35;94.19;101868.09;9763849;30;20099;-79
2021/04/19 22:03:49;;;;;;;39.75;26.98;;;;;;;8.94;95.08;101826.41;9772545;30;20045;-79
2021/04/19 22:08:50;;;;;;;37.05;25.75;;;;;;;8.93;96.15;101835.59;9756993;30;20041;-79
2021/04/19 22:13:51;;;;;;;38.28;25.40;;;;;;;9.17;96.68;101873.56;9764595;30;20548;-79
2021/04/19 22:18:51;;;;;;;36.50;25.80;;;;;;;9.19;96.49;101871.31;9771824;30;20060;-79
2021/04/19 22:23:52;;;;;;;39.47;26.20;;;;;;;8.93;96.17;101832.88;9789257;30;20263;-79
2021/04/19 22:28:52;;;;;;;40.20;26.63;;;;;;;9.14;97.24;101879.59;9758195;30;20438;-79
2021/04/19 22:33:53;;;;;;;40.13;27.10;;;;;;;8.95;97.46;101849.53;9757312;30;20064;-79
2021/04/19 22:38:53;;;;;;;42.65;27.58;;;;;;;8.74;97.68;101828.66;9760506;30;20055;-78
2021/04/19 22:43:56;;;;;;;46.90;29.55;;;;;;;8.74;97.91;101844.84;9800204;30;20059;-79
2021/04/19 22:48:56;;;;;;;46.85;30.83;;;;;;;8.88;98.13;101877.78;9763522;30;20056;-78
2021/04/19 22:53:57;;;;;;;49.42;32.65;;;;;;;8.82;98.40;101862.91;9744737;30;20057;-78
2021/04/19 22:58:57;;;;;;;48.08;32.20;;;;;;;8.87;99.22;101886.22;9783105;30;20098;-79
2021/04/19 23:03:58;;;;;;;47.10;32.05;;;;;;;8.53;99.41;101833.16;9754497;30;20053;-78